Time;durP1;ratioP1;P1;durP2;ratioP2;P2;SDS_P1;SDS_P2;PMS_P1;PMS_P2;Temp;Humidity;BMP_temperature;BMP_pressure;BME280_temperature;BME280_humidity;BME280_pressure;Samples;Min_cycle;Max_cycle;Signal;HPM_P1;HPM_P2
2023/12/12 00:03:29;;;;;;;3.60;2.40;;;;;;;7.85;72.90;97771.93;234434;208;137977;-57
2023/12/12 00:08:36;;;;;;;4.30;2.60;;;;;;;7.81;73.05;97776.44;234224;213;146274;-57
2023/12/12 00:13:39;;;;;;;4.80;2.50;;;;;;;7.78;73.23;97781.74;234269;208;138901;-59
2023/12/12 00:18:42;;;;;;;5.30;2.90;;;;;;;7.82;73.33;97784.69;234355;212;137058;-60
2023/12/12 00:23:46;;;;;;;4.20;2.70;;;;;;;7.82;73.24;97789.09;234012;207;146414;-59
2023/12/12 00:28:49;;;;;;;7.80;3.30;;;;;;;7.75;73.32;97797.02;234483;208;138708;-57
2023/12/12 00:33:52;;;;;;;7.90;4.00;;;;;;;7.67;73.68;97809.06;233847;213;136449;-61
2023/12/12 00:38:56;;;;;;;8.40;4.50;;;;;;;7.61;74.07;97815.27;234159;213;145858;-58
2023/12/12 00:43:59;;;;;;;7.70;4.40;;;;;;;7.58;74.19;97816.59;234395;208;139485;-59
2023/12/12 00:49:03;;;;;;;10.00;3.90;;;;;;;7.63;74.57;97815.00;234268;212;138697;-59
2023/12/12 00:54:06;;;;;;;7.20;4.20;;;;;;;7.73;74.47;97825.02;233678;215;148421;-59
2023/12/12 00:59:09;;;;;;;10.70;4.20;;;;;;;7.82;74.43;97828.63;233487;213;138742;-58
2023/12/12 01:04:13;;;;;;;9.80;4.10;;;;;;;7.89;74.24;97834.91;233816;210;137184;-59
2023/12/12 01:09:16;;;;;;;8.20;4.00;;;;;;;7.91;74.11;97841.61;233828;214;145899;-58
2023/12/12 01:14:20;;;;;;;8.20;3.70;;;;;;;7.93;74.00;97844.86;234282;211;139550;-58
2023/12/12 01:19:23;;;;;;;7.50;3.90;;;;;;;7.93;73.86;97845.16;234383;213;136193;-60
2023/12/12 01:24:27;;;;;;;5.90;3.00;;;;;;;7.91;73.78;97844.31;234344;215;148644;-60
2023/12/12 01:29:30;;;;;;;8.80;3.00;;;;;;;7.90;73.83;97844.67;233285;215;139359;-56
2023/12/12 01:34:33;;;;;;;4.90;3.00;;;;;;;7.93;73.54;97848.89;234341;215;138251;-59
2023/12/12 01:39:36;;;;;;;6.00;3.40;;;;;;;7.98;73.25;97854.16;234220;215;146708;-58
2023/12/12 01:44:40;;;;;;;7.60;3.70;;;;;;;7.96;73.08;97859.59;234350;208;139746;-57
2023/12/12 01:49:44;;;;;;;6.80;3.40;;;;;;;7.89;73.15;97863.11;234486;213;137225;-58
2023/12/12 01:54:49;;;;;;;6.20;3.00;;;;;;;7.82;73.34;97861.84;234308;213;145869;-58
2023/12/12 01:59:52;;;;;;;7.00;3.30;;;;;;;7.77;73.37;97864.33;234443;215;139518;-60
2023/12/12 02:04:55;;;;;;;6.50;3.30;;;;;;;7.76;73.67;97867.35;234522;215;138390;-59
2023/12/12 02:09:59;;;;;;;6.90;3.50;;;;;;;7.85;73.47;97863.56;234352;213;145588;-58
2023/12/12 02:15:03;;;;;;;5.20;3.10;;;;;;;7.90;73.18;97863.98;234322;215;138800;-61
2023/12/12 02:20:07;;;;;;;5.70;3.00;;;;;;;7.88;73.22;97869.23;234239;215;136983;-59
2023/12/12 02:25:10;;;;;;;7.40;3.20;;;;;;;7.87;73.16;97875.80;234269;213;146295;-60
2023/12/12 02:30:16;;;;;;;5.70;2.90;;;;;;;7.88;73.04;97878.92;234359;212;138893;-60
2023/12/12 02:35:19;;;;;;;5.60;3.10;;;;;;;7.87;72.87;97882.91;234554;208;136609;-58
2023/12/12 02:40:22;;;;;;;7.30;2.80;;;;;;;7.81;72.84;97880.96;234407;213;145586;-59
2023/12/12 02:45:26;;;;;;;6.10;2.90;;;;;;;7.89;72.58;97882.91;234286;213;138713;-59
2023/12/12 02:50:29;;;;;;;5.40;2.80;;;;;;;7.93;72.14;97881.23;234363;213;136662;-59
2023/12/12 02:55:32;;;;;;;7.50;3.00;;;;;;;7.93;71.78;97890.06;234450;214;147614;-58
2023/12/12 03:00:35;;;;;;;7.10;2.80;;;;;;;7.97;71.62;97896.80;234552;214;140227;-61
2023/12/12 03:05:39;;;;;;;4.70;2.60;;;;;;;7.97;71.44;97904.93;233987;214;136570;-58
2023/12/12 03:10:42;;;;;;;7.00;2.50;;;;;;;7.93;71.26;97905.36;234414;214;146320;-59
2023/12/12 03:15:45;;;;;;;4.50;2.70;;;;;;;7.85;71.38;97917.79;234220;207;138896;-56
2023/12/12 03:20:48;;;;;;;8.60;2.70;;;;;;;7.85;71.40;97917.60;234393;214;138169;-60
2023/12/12 03:25:52;;;;;;;4.80;2.40;;;;;;;7.94;71.23;97924.22;234239;213;146683;-59
2023/12/12 03:30:55;;;;;;;8.80;2.50;;;;;;;8.01;70.93;97930.81;234561;212;139665;-59
2023/12/12 03:35:58;;;;;;;6.20;2.80;;;;;;;8.00;70.90;97935.42;234463;213;136194;-58
2023/12/12 03:41:02;;;;;;;7.20;2.90;;;;;;;8.00;71.03;97938.08;234534;214;146705;-59
2023/12/12 03:46:05;;;;;;;6.50;2.40;;;;;;;7.98;71.13;97937.94;234077;208;138876;-58
2023/12/12 03:51:12;;;;;;;5.10;2.50;;;;;;;7.89;71.45;97944.90;234322;212;137446;-58
2023/12/12 03:56:15;;;;;;;6.70;2.20;;;;;;;7.81;71.62;97952.63;234158;207;146194;-60
2023/12/12 04:01:19;;;;;;;5.70;2.70;;;;;;;7.85;71.79;97950.10;234345;215;138861;-59
2023/12/12 04:06:23;;;;;;;3.00;2.00;;;;;;;7.85;71.66;97957.20;234219;213;137206;-59
2023/12/12 04:11:26;;;;;;;6.20;2.50;;;;;;;7.89;71.67;97955.34;234729;214;145597;-59
2023/12/12 04:16:30;;;;;;;5.00;2.20;;;;;;;7.89;71.49;97957.63;234372;215;139101;-59
2023/12/12 04:21:33;;;;;;;6.50;2.40;;;;;;;7.85;71.61;97957.35;234377;214;137197;-59
2023/12/12 04:26:36;;;;;;;5.30;2.40;;;;;;;7.79;71.69;97963.00;233720;213;146000;-59
2023/12/12 04:31:40;;;;;;;4.80;2.20;;;;;;;7.75;71.79;97960.33;234717;212;138672;-60
2023/12/12 04:36:43;;;;;;;4.70;2.00;;;;;;;7.81;71.83;97955.48;234310;214;138108;-60
2023/12/12 04:41:46;;;;;;;5.50;2.30;;;;;;;7.90;71.34;97964.45;234489;212;145688;-59
2023/12/12 04:46:49;;;;;;;5.70;2.10;;;;;;;7.95;71.01;97957.76;234599;212;139716;-58
2023/12/12 04:51:53;;;;;;;5.20;2.90;;;;;;;7.92;70.75;97967.63;233890;212;136347;-59
2023/12/12 04:56:56;;;;;;;6.10;2.20;;;;;;;7.92;70.79;97972.77;234402;214;145857;-59
2023/12/12 05:02:00;;;;;;;4.60;2.20;;;;;;;7.91;70.73;97979.55;234473;214;138802;-58
2023/12/12 05:07:04;;;;;;;5.60;2.30;;;;;;;7.86;70.87;97985.55;234510;214;136262;-61
2023/12/12 05:12:07;;;;;;;7.70;2.50;;;;;;;7.82;70.64;97990.73;234455;214;146085;-61
2023/12/12 05:17:10;;;;;;;4.60;2.20;;;;;;;7.85;70.42;97999.02;233584;212;138816;-57
2023/12/12 05:22:14;;;;;;;4.50;2.40;;;;;;;7.90;70.33;98001.67;234452;211;138387;-60
2023/12/12 05:27:17;;;;;;;4.10;2.20;;;;;;;7.95;69.98;98013.20;234374;213;145929;-63
2023/12/12 05:32:21;;;;;;;7.80;2.70;;;;;;;7.95;69.86;98020.04;234436;213;139350;-61
2023/12/12 05:37:24;;;;;;;80.30;55.50;;;;;;;8.01;70.12;98028.67;234546;213;136475;-59
2023/12/12 05:42:27;;;;;;;6.70;3.10;;;;;;;7.97;69.84;98035.47;234454;214;145535;-57
2023/12/12 05:47:30;;;;;;;14.50;9.00;;;;;;;7.94;69.98;98048.23;234748;214;139556;-59
2023/12/12 05:52:34;;;;;;;7.00;2.80;;;;;;;7.98;70.10;98059.23;234637;214;138063;-60
2023/12/12 05:57:38;;;;;;;4.50;2.40;;;;;;;8.07;70.37;98067.66;234448;214;146198;-58
2023/12/12 06:02:42;;;;;;;6.20;3.10;;;;;;;8.10;70.27;98075.06;234612;214;138663;-59
2023/12/12 06:07:45;;;;;;;9.20;3.20;;;;;;;8.09;70.45;98083.63;234572;214;136624;-58
2023/12/12 06:12:48;;;;;;;5.90;3.10;;;;;;;8.00;70.50;98094.80;234477;213;148821;-58
2023/12/12 06:17:51;;;;;;;6.30;2.80;;;;;;;7.90;70.73;98096.52;234510;212;138977;-60
2023/12/12 06:22:55;;;;;;;5.70;2.70;;;;;;;7.85;70.93;98102.17;234586;212;137151;-59
2023/12/12 06:27:58;;;;;;;4.70;2.50;;;;;;;7.87;71.09;98106.80;234455;207;147466;-58
2023/12/12 06:33:02;;;;;;;7.80;2.90;;;;;;;7.92;71.01;98116.67;234387;213;139996;-59
2023/12/12 06:38:05;;;;;;;7.00;2.70;;;;;;;7.96;70.99;98124.36;234515;213;136638;-59
2023/12/12 06:43:08;;;;;;;209.60;137.80;;;;;;;7.99;72.03;98133.16;234629;213;148004;-62
2023/12/12 06:48:12;;;;;;;9.70;4.70;;;;;;;8.06;71.60;98134.27;234535;213;139175;-58
2023/12/12 06:53:16;;;;;;;5.70;3.20;;;;;;;8.02;71.26;98140.05;234529;212;136473;-58
2023/12/12 06:58:22;;;;;;;7.10;3.10;;;;;;;7.94;71.33;98143.41;234129;212;147569;-57
2023/12/12 07:03:25;;;;;;;;;;;;;;;7.83;71.50;98149.39;234400;214;138878;-60
2023/12/12 07:08:28;;;;;;;5.60;2.50;;;;;;;7.86;71.75;98152.61;234539;214;131270;-61
2023/12/12 07:13:32;;;;;;;5.60;3.10;;;;;;;7.94;71.40;98157.69;234588;214;147470;-61
2023/12/12 07:18:39;;;;;;;5.40;2.90;;;;;;;7.97;71.27;98158.02;234464;212;139165;-63
2023/12/12 07:23:42;;;;;;;7.10;3.30;;;;;;;7.97;71.08;98158.71;234635;214;136669;-61
2023/12/12 07:28:45;;;;;;;7.00;3.10;;;;;;;7.95;71.03;98162.40;234421;215;147362;-61
2023/12/12 07:33:50;;;;;;;7.20;3.00;;;;;;;7.91;70.90;98171.69;234389;214;139289;-61
2023/12/12 07:38:55;;;;;;;6.30;2.90;;;;;;;7.83;71.12;98170.22;234304;213;136945;-61
2023/12/12 07:43:58;;;;;;;9.10;3.40;;;;;;;7.75;71.22;98176.75;234290;215;148748;-60
2023/12/12 07:49:01;;;;;;;7.30;3.60;;;;;;;7.74;71.43;98187.92;234317;212;140015;-61
2023/12/12 07:54:06;;;;;;;7.60;3.30;;;;;;;7.81;71.31;98194.40;234324;208;137692;-62
2023/12/12 07:59:09;;;;;;;10.80;6.00;;;;;;;7.89;71.13;98200.59;234530;212;147667;-60
2023/12/12 08:04:12;;;;;;;7.00;3.80;;;;;;;7.93;70.93;98196.64;234432;213;138892;-60
2023/12/12 08:09:15;;;;;;;5.70;3.30;;;;;;;8.00;70.77;98207.50;234463;207;136715;-60
2023/12/12 08:14:19;;;;;;;6.90;3.70;;;;;;;7.99;70.61;98217.92;234418;212;148159;-61
2023/12/12 08:19:22;;;;;;;7.80;3.30;;;;;;;8.00;70.59;98222.15;234453;212;138997;-61
2023/12/12 08:24:25;;;;;;;7.20;3.60;;;;;;;7.98;70.52;98230.89;234467;214;137471;-61
2023/12/12 08:29:28;;;;;;;7.70;3.90;;;;;;;8.02;70.44;98234.21;234584;214;148317;-60
2023/12/12 08:34:35;;;;;;;7.70;3.20;;;;;;;8.15;70.53;98244.63;234510;213;138695;-60
2023/12/12 08:39:38;;;;;;;7.40;3.50;;;;;;;8.27;69.91;98253.05;234390;215;136996;-61
2023/12/12 08:44:43;;;;;;;7.10;3.70;;;;;;;8.28;69.91;98260.09;234415;211;147563;-60
2023/12/12 08:49:47;;;;;;;6.90;3.70;;;;;;;8.39;69.88;98259.53;234305;215;139273;-61
2023/12/12 08:54:51;;;;;;;4.90;2.80;;;;;;;8.46;69.52;98264.40;234430;215;136615;-60
2023/12/12 08:59:54;;;;;;;5.80;3.40;;;;;;;8.45;69.39;98258.42;233925;211;147656;-61
2023/12/12 09:04:58;;;;;;;5.70;2.90;;;;;;;8.47;69.18;98256.35;234378;212;141868;-60
2023/12/12 09:10:03;;;;;;;7.90;2.80;;;;;;;8.46;69.18;98251.85;234312;213;138003;-60
2023/12/12 09:15:06;;;;;;;7.70;3.30;;;;;;;8.50;69.14;98253.35;234411;213;148178;-59
2023/12/12 09:20:12;;;;;;;8.10;3.30;;;;;;;8.65;69.01;98253.55;234307;213;138593;-60
2023/12/12 09:25:15;;;;;;;6.80;3.60;;;;;;;8.78;68.65;98261.20;234355;212;137993;-59
2023/12/12 09:30:18;;;;;;;9.20;3.90;;;;;;;8.90;68.05;98265.70;234364;208;147407;-62
2023/12/12 09:35:21;;;;;;;5.40;3.50;;;;;;;9.03;67.74;98274.38;234189;213;138920;-60
2023/12/12 09:40:25;;;;;;;7.10;3.10;;;;;;;9.13;67.02;98268.20;234566;211;136709;-59
2023/12/12 09:45:30;;;;;;;9.20;2.70;;;;;;;9.14;66.36;98265.64;234216;214;147405;-60
2023/12/12 09:50:36;;;;;;;131.20;89.60;;;;;;;9.14;66.23;98252.71;234251;215;138710;-59
2023/12/12 09:55:41;;;;;;;6.70;3.20;;;;;;;9.12;65.78;98257.48;233565;208;138216;-60
2023/12/12 10:00:44;;;;;;;7.50;3.00;;;;;;;8.99;65.91;98259.09;234357;207;147650;-58
2023/12/12 10:05:53;;;;;;;3.70;2.30;;;;;;;9.02;66.27;98256.23;234351;213;140437;-60
2023/12/12 10:10:56;;;;;;;4.30;2.30;;;;;;;9.12;66.50;98256.64;234379;213;137665;-58
2023/12/12 10:16:13;;;;;;;4.70;2.20;;;;;;;9.31;66.44;98254.02;234027;212;148965;-58
2023/12/12 10:21:18;;;;;;;8.10;2.60;;;;;;;9.48;65.89;98261.33;234489;211;144605;-60
2023/12/12 10:26:32;;;;;;;9.10;2.80;;;;;;;9.58;65.77;98268.66;234309;213;136284;-58
2023/12/12 10:31:35;;;;;;;4.20;2.50;;;;;;;9.69;65.71;98273.33;234311;213;148808;-60
2023/12/12 10:36:41;;;;;;;5.50;3.00;;;;;;;9.70;65.29;98279.45;234347;212;138747;-59
2023/12/12 10:41:56;;;;;;;12.80;6.80;;;;;;;9.75;65.48;98281.25;234525;213;136539;-59
2023/12/12 10:47:00;;;;;;;9.90;3.60;;;;;;;9.73;65.17;98282.64;234671;208;149182;-61
2023/12/12 10:52:07;;;;;;;6.70;3.40;;;;;;;9.68;65.24;98278.52;233478;213;139540;-59
2023/12/12 10:57:17;;;;;;;6.40;3.30;;;;;;;9.58;64.97;98282.30;234481;212;137464;-59
2023/12/12 11:02:21;;;;;;;7.90;3.50;;;;;;;9.47;64.97;98294.34;233950;207;149160;-57
2023/12/12 11:07:24;;;;;;;9.40;4.00;;;;;;;9.37;65.18;98296.98;234401;212;138793;-58
2023/12/12 11:12:28;;;;;;;8.70;4.10;;;;;;;9.32;64.97;98298.22;234356;207;136347;-58
2023/12/12 11:17:32;;;;;;;7.30;3.80;;;;;;;9.29;65.30;98289.44;234483;213;148247;-57
2023/12/12 11:22:40;;;;;;;10.70;3.90;;;;;;;9.22;65.44;98295.67;234062;212;139789;-58
2023/12/12 11:27:48;;;;;;;7.50;3.50;;;;;;;9.31;65.53;98297.92;233577;213;138147;-58
2023/12/12 11:32:54;;;;;;;6.60;3.40;;;;;;;9.32;65.23;98304.63;234233;211;147684;-58
2023/12/12 11:38:05;;;;;;;6.90;3.60;;;;;;;9.30;65.21;98307.92;234355;212;139510;-58
2023/12/12 11:43:20;;;;;;;56.20;41.10;;;;;;;9.25;64.79;98308.08;234450;211;137138;-58
2023/12/12 11:48:26;;;;;;;8.90;4.30;;;;;;;9.28;64.95;98304.03;234363;212;148354;-57
2023/12/12 11:53:38;;;;;;;;;;;;;;;9.28;64.69;98303.12;234636;206;138963;-57
2023/12/12 11:58:41;;;;;;;8.30;3.80;;;;;;;9.28;64.49;98306.30;234465;212;131501;-56
2023/12/12 12:03:44;;;;;;;11.70;7.30;;;;;;;9.27;64.31;98306.20;234412;207;148146;-61
2023/12/12 12:08:49;;;;;;;9.90;4.80;;;;;;;9.23;64.01;98311.56;233777;212;138878;-56
2023/12/12 12:13:52;;;;;;;10.20;6.10;;;;;;;9.14;63.94;98311.33;234318;215;137147;-57
2023/12/12 12:18:55;;;;;;;9.80;5.90;;;;;;;9.15;64.31;98309.27;234490;214;147679;-68
2023/12/12 12:24:02;;;;;;;8.50;4.60;;;;;;;9.24;64.07;98316.61;234498;213;139334;-60
2023/12/12 12:29:09;;;;;;;8.40;4.50;;;;;;;9.21;63.93;98325.14;233562;207;137407;-62
2023/12/12 12:34:19;;;;;;;9.80;4.50;;;;;;;9.18;64.03;98322.89;234290;214;149220;-63
2023/12/12 12:39:23;;;;;;;369.60;286.10;;;;;;;9.20;64.17;98320.09;234018;213;139469;-57
2023/12/12 12:44:31;;;;;;;18.10;10.20;;;;;;;9.28;65.72;98316.34;234265;212;141095;-58
2023/12/12 12:49:35;;;;;;;9.10;4.50;;;;;;;9.42;63.99;98316.65;233972;211;148690;-60
2023/12/12 12:54:38;;;;;;;11.40;4.90;;;;;;;9.40;63.73;98319.12;234358;212;139009;-57
2023/12/12 12:59:42;;;;;;;9.70;4.70;;;;;;;9.42;63.61;98318.95;234355;208;138540;-59
2023/12/12 13:04:45;;;;;;;10.20;4.40;;;;;;;9.44;63.42;98322.86;233931;212;148155;-57
2023/12/12 13:09:48;;;;;;;9.70;5.10;;;;;;;9.45;63.51;98327.80;234362;212;140017;-57
2023/12/12 13:14:52;;;;;;;9.70;4.90;;;;;;;9.47;63.47;98327.96;234185;211;137798;-58
2023/12/12 13:19:56;;;;;;;11.60;5.70;;;;;;;9.43;63.56;98327.73;233858;213;147967;-58
2023/12/12 13:24:59;;;;;;;12.50;5.70;;;;;;;9.44;63.51;98326.63;233972;211;140675;-58
2023/12/12 13:30:10;;;;;;;9.80;5.50;;;;;;;9.38;63.62;98328.95;234458;208;142402;-63
2023/12/12 13:35:17;;;;;;;16.90;6.50;;;;;;;9.40;63.69;98330.06;234569;207;148835;-61
2023/12/12 13:40:37;;;;;;;13.70;6.80;;;;;;;9.35;63.71;98324.96;234414;208;138643;-60
2023/12/12 13:45:42;;;;;;;11.50;6.10;;;;;;;9.20;63.96;98318.50;234246;207;138247;-60
2023/12/12 13:50:45;;;;;;;152.30;96.70;;;;;;;9.14;64.55;98320.14;234330;208;148273;-59
2023/12/12 13:55:48;;;;;;;16.80;9.40;;;;;;;9.20;64.80;98318.46;234377;213;138774;-63
2023/12/12 14:00:52;;;;;;;14.80;6.90;;;;;;;9.26;64.53;98319.58;234328;212;137358;-63
2023/12/12 14:05:55;;;;;;;14.60;6.90;;;;;;;9.23;64.51;98313.85;234049;212;148415;-62
2023/12/12 14:10:59;;;;;;;16.10;7.20;;;;;;;9.22;64.52;98316.98;234382;212;139690;-63
2023/12/12 14:16:05;;;;;;;14.40;7.50;;;;;;;9.23;64.63;98314.95;234434;208;136866;-60
2023/12/12 14:21:12;;;;;;;14.90;7.30;;;;;;;9.19;64.60;98311.85;233883;208;148064;-63
2023/12/12 14:26:16;;;;;;;15.90;7.20;;;;;;;9.14;64.81;98310.09;234192;213;139302;-59
2023/12/12 14:31:20;;;;;;;17.60;7.90;;;;;;;9.13;64.85;98304.69;234283;210;136969;-60
2023/12/12 14:36:23;;;;;;;14.20;7.60;;;;;;;9.10;65.05;98299.86;233710;208;147627;-60
2023/12/12 14:41:28;;;;;;;15.80;7.70;;;;;;;9.12;65.00;98292.86;234259;212;139344;-63
2023/12/12 14:46:31;;;;;;;17.20;8.20;;;;;;;9.12;65.03;98285.79;234504;211;139375;-62
2023/12/12 14:51:34;;;;;;;17.00;9.00;;;;;;;9.12;65.04;98283.27;234542;211;147692;-57
2023/12/12 14:56:41;;;;;;;18.30;7.80;;;;;;;9.08;65.06;98285.40;234483;212;140056;-58
2023/12/12 15:01:44;;;;;;;17.00;8.90;;;;;;;8.93;65.16;98287.04;234339;212;136741;-58
2023/12/12 15:06:47;;;;;;;20.00;8.80;;;;;;;8.81;65.59;98295.67;234445;212;147798;-56
2023/12/12 15:11:50;;;;;;;39.80;30.20;;;;;;;8.74;65.94;98294.91;234356;211;144687;-56
2023/12/12 15:16:53;;;;;;;16.80;9.80;;;;;;;8.78;66.63;98301.17;234448;207;136985;-57
2023/12/12 15:21:56;;;;;;;16.60;9.10;;;;;;;8.75;66.24;98299.41;233569;212;147921;-58
2023/12/12 15:27:00;;;;;;;16.80;8.50;;;;;;;8.66;66.26;98301.94;233869;207;139198;-57
2023/12/12 15:32:04;;;;;;;19.70;10.10;;;;;;;8.60;66.40;98299.02;234196;211;138387;-58
2023/12/12 15:37:08;;;;;;;15.60;7.70;;;;;;;8.52;66.62;98306.27;234490;206;148555;-57
2023/12/12 15:42:11;;;;;;;15.30;7.60;;;;;;;8.42;66.99;98306.35;234372;208;139479;-58
2023/12/12 15:47:14;;;;;;;10.70;6.50;;;;;;;8.45;67.11;98305.27;234578;208;137246;-58
2023/12/12 15:52:17;;;;;;;14.10;6.60;;;;;;;8.53;66.96;98310.45;234430;212;147686;-58
2023/12/12 15:57:21;;;;;;;15.90;6.40;;;;;;;8.61;66.50;98305.14;234263;212;140627;-59
2023/12/12 16:02:24;;;;;;;11.70;6.30;;;;;;;8.69;66.16;98307.80;234278;212;136991;-61
2023/12/12 16:07:27;;;;;;;13.20;6.60;;;;;;;8.74;65.66;98305.29;234056;211;149463;-57
2023/12/12 16:12:30;;;;;;;13.00;6.50;;;;;;;8.82;65.21;98296.70;234492;207;140868;-58
2023/12/12 16:17:35;;;;;;;13.70;6.80;;;;;;;8.81;64.75;98293.76;234538;212;141598;-55
2023/12/12 16:22:38;;;;;;;12.50;7.10;;;;;;;8.76;64.57;98291.73;234339;212;147480;-57
2023/12/12 16:27:46;;;;;;;13.10;6.70;;;;;;;8.72;64.48;98285.45;234383;213;138968;-56
2023/12/12 16:32:59;;;;;;;12.00;7.30;;;;;;;8.68;64.19;98291.06;234442;212;137835;-56
2023/12/12 16:38:04;;;;;;;14.20;7.80;;;;;;;8.63;64.20;98292.83;234328;211;148365;-60
2023/12/12 16:43:07;;;;;;;14.40;8.20;;;;;;;8.66;64.10;98292.81;234438;212;140098;-61
2023/12/12 16:48:11;;;;;;;15.30;7.90;;;;;;;8.68;63.97;98292.82;234387;212;139724;-59
2023/12/12 16:53:15;;;;;;;14.90;8.70;;;;;;;8.63;63.96;98297.38;234171;208;147361;-60
2023/12/12 16:58:22;;;;;;;14.30;8.60;;;;;;;8.59;63.81;98297.84;234321;207;139487;-60
2023/12/12 17:03:25;;;;;;;14.50;8.40;;;;;;;8.58;63.94;98295.79;234382;208;137135;-61
2023/12/12 17:08:32;;;;;;;15.20;8.70;;;;;;;8.53;64.05;98292.60;234516;207;147530;-60
2023/12/12 17:13:35;;;;;;;16.10;8.40;;;;;;;8.47;64.07;98293.32;234321;212;141217;-61
2023/12/12 17:18:39;;;;;;;181.60;134.10;;;;;;;8.45;64.40;98290.11;234353;207;137368;-59
2023/12/12 17:23:42;;;;;;;26.80;16.20;;;;;;;8.57;65.26;98281.35;234576;212;147455;-61
2023/12/12 17:28:45;;;;;;;17.40;10.70;;;;;;;8.64;64.18;98283.36;234351;211;139390;-60
2023/12/12 17:33:49;;;;;;;15.20;9.10;;;;;;;8.63;64.02;98277.42;234432;207;137173;-60
2023/12/12 17:38:52;;;;;;;16.20;9.60;;;;;;;8.62;63.83;98270.40;234467;207;148439;-61
2023/12/12 17:43:55;;;;;;;17.70;10.30;;;;;;;8.57;63.87;98272.50;234378;212;138627;-61
2023/12/12 17:48:58;;;;;;;14.90;9.50;;;;;;;8.50;64.06;98270.46;234361;213;137310;-61
2023/12/12 17:54:02;;;;;;;13.70;9.10;;;;;;;8.45;64.15;98271.20;234375;208;147781;-60
2023/12/12 17:59:06;;;;;;;17.50;10.50;;;;;;;8.38;64.21;98266.71;234480;212;140530;-62
2023/12/12 18:04:11;;;;;;;16.70;9.60;;;;;;;8.34;64.26;98268.69;234401;208;137005;-60
2023/12/12 18:09:14;;;;;;;16.00;9.60;;;;;;;8.29;64.62;98264.91;234421;211;149191;-60
2023/12/12 18:14:17;;;;;;;16.00;9.40;;;;;;;8.31;64.67;98256.48;234400;213;137152;-59
2023/12/12 18:19:20;;;;;;;18.40;10.50;;;;;;;8.33;64.55;98255.19;234378;213;137331;-58
2023/12/12 18:24:26;;;;;;;;;;;;;;;8.27;64.41;98253.39;234455;211;147420;-61
2023/12/12 18:29:29;;;;;;;22.70;15.50;;;;;;;8.37;66.43;98252.79;234544;213;138852;-60
2023/12/12 18:34:32;;;;;;;19.10;10.20;;;;;;;8.58;64.99;98243.67;234331;207;137521;-61
2023/12/12 18:39:38;;;;;;;16.70;10.30;;;;;;;8.59;64.39;98243.34;234314;212;148716;-62
2023/12/12 18:44:41;;;;;;;18.40;10.30;;;;;;;8.63;63.98;98249.64;234486;208;139026;-62
2023/12/12 18:49:45;;;;;;;16.60;9.90;;;;;;;8.59;64.05;98257.03;234231;212;140134;-63
2023/12/12 18:54:48;;;;;;;17.30;9.50;;;;;;;8.61;63.94;98245.75;234094;211;147434;-62
2023/12/12 18:59:52;;;;;;;17.00;10.20;;;;;;;8.56;63.98;98233.88;234379;212;139718;-63
2023/12/12 19:04:55;;;;;;;26.50;18.10;;;;;;;8.51;64.29;98237.36;233985;208;137983;-56
2023/12/12 19:09:58;;;;;;;226.70;152.20;;;;;;;8.51;64.56;98244.96;233154;211;147585;-55
2023/12/12 19:15:02;;;;;;;35.40;20.50;;;;;;;8.56;64.97;98240.38;234047;211;138691;-56
2023/12/12 19:20:15;;;;;;;16.50;10.80;;;;;;;8.48;64.10;98233.53;234523;212;138314;-56
2023/12/12 19:25:19;;;;;;;14.40;9.10;;;;;;;8.35;64.38;98223.40;234454;214;147730;-57
2023/12/12 19:30:22;;;;;;;48.10;35.90;;;;;;;8.32;64.93;98208.73;234372;211;138745;-56
2023/12/12 19:35:26;;;;;;;28.10;17.40;;;;;;;8.32;64.98;98208.38;234301;211;136449;-55
2023/12/12 19:40:29;;;;;;;20.30;12.50;;;;;;;8.21;65.26;98211.23;234027;212;148434;-55
2023/12/12 19:45:36;;;;;;;16.70;9.90;;;;;;;8.04;65.05;98226.09;234148;214;138805;-56
2023/12/12 19:50:39;;;;;;;15.80;9.10;;;;;;;7.98;65.36;98230.20;234473;213;137252;-57
2023/12/12 19:55:42;;;;;;;16.20;9.40;;;;;;;7.97;65.25;98230.24;234313;212;147813;-57
2023/12/12 20:00:45;;;;;;;17.40;10.10;;;;;;;7.97;65.28;98226.77;234482;214;138833;-57
2023/12/12 20:05:49;;;;;;;18.10;11.30;;;;;;;7.98;65.26;98208.99;234472;212;138615;-57
2023/12/12 20:10:52;;;;;;;18.50;10.80;;;;;;;7.89;65.40;98211.18;234421;215;148622;-57
2023/12/12 20:15:56;;;;;;;17.60;10.30;;;;;;;7.78;65.59;98202.89;234273;212;139519;-58
2023/12/12 20:21:01;;;;;;;22.20;12.60;;;;;;;7.66;65.71;98193.92;234302;214;138068;-57
2023/12/12 20:26:04;;;;;;;22.00;11.60;;;;;;;7.49;65.87;98184.97;233598;212;146946;-57
2023/12/12 20:31:08;;;;;;;21.10;13.00;;;;;;;7.35;65.95;98178.42;234499;214;138468;-58
2023/12/12 20:36:18;;;;;;;24.50;14.30;;;;;;;7.20;66.02;98184.13;234534;214;137235;-58
2023/12/12 20:41:21;;;;;;;18.60;10.90;;;;;;;7.07;66.27;98195.18;234645;214;147410;-58
2023/12/12 20:46:25;;;;;;;18.80;10.40;;;;;;;7.01;66.76;98212.09;234290;212;139445;-57
2023/12/12 20:51:31;;;;;;;21.40;10.50;;;;;;;7.05;66.81;98217.02;234379;212;136928;-58
2023/12/12 20:56:41;;;;;;;18.40;10.90;;;;;;;7.18;67.10;98223.94;234180;212;147767;-57
2023/12/12 21:01:48;;;;;;;19.80;11.90;;;;;;;7.42;66.52;98224.98;234271;212;139480;-58
2023/12/12 21:06:51;;;;;;;19.80;11.30;;;;;;;7.56;65.99;98220.00;234377;214;136574;-58
2023/12/12 21:11:54;;;;;;;17.20;11.70;;;;;;;7.61;65.49;98209.59;234536;213;147426;-58
2023/12/12 21:16:57;;;;;;;21.20;12.40;;;;;;;7.63;65.18;98199.77;234005;211;139942;-59
2023/12/12 21:22:01;;;;;;;22.00;12.30;;;;;;;7.64;65.11;98191.74;233311;213;137270;-57
2023/12/12 21:27:04;;;;;;;20.40;12.60;;;;;;;7.64;64.89;98183.98;234259;212;147434;-59
2023/12/12 21:32:07;;;;;;;20.70;12.60;;;;;;;7.61;64.87;98177.12;234161;214;140256;-57
2023/12/12 21:37:11;;;;;;;21.60;13.80;;;;;;;7.46;64.94;98168.39;234357;211;138064;-58
2023/12/12 21:42:14;;;;;;;23.80;15.50;;;;;;;7.30;65.11;98156.16;234295;212;147419;-57
2023/12/12 21:47:17;;;;;;;30.80;17.30;;;;;;;7.15;65.25;98158.33;234229;213;139451;-58
2023/12/12 21:52:20;;;;;;;30.80;16.80;;;;;;;6.99;65.58;98163.76;234549;214;137535;-58
2023/12/12 21:57:24;;;;;;;30.70;17.70;;;;;;;6.79;65.97;98159.29;234493;213;148065;-58
2023/12/12 22:02:28;;;;;;;29.60;17.70;;;;;;;6.67;66.31;98161.11;234606;212;139071;-57
2023/12/12 22:07:31;;;;;;;29.70;18.50;;;;;;;6.55;66.30;98163.08;234246;214;138017;-57
2023/12/12 22:12:36;;;;;;;29.10;18.60;;;;;;;6.44;66.58;98154.05;234463;208;147617;-58
2023/12/12 22:17:39;;;;;;;29.30;18.60;;;;;;;6.32;66.80;98143.08;234563;213;139498;-56
2023/12/12 22:22:42;;;;;;;35.30;20.60;;;;;;;6.21;67.08;98136.20;234396;215;138562;-57
2023/12/12 22:27:45;;;;;;;27.70;17.40;;;;;;;6.15;67.37;98134.58;233660;208;147546;-57
2023/12/12 22:32:51;;;;;;;29.10;17.40;;;;;;;6.12;67.34;98127.73;234371;214;140201;-58
2023/12/12 22:37:54;;;;;;;29.30;17.90;;;;;;;6.13;67.34;98121.65;233949;213;137763;-57
2023/12/12 22:42:59;;;;;;;26.30;16.70;;;;;;;6.14;67.21;98112.30;234495;211;148882;-58
2023/12/12 22:48:03;;;;;;;29.40;18.20;;;;;;;6.11;67.13;98112.64;234260;213;139402;-56
2023/12/12 22:53:06;;;;;;;29.00;17.60;;;;;;;6.03;66.97;98115.05;234550;214;137077;-57
2023/12/12 22:58:09;;;;;;;28.90;17.40;;;;;;;5.94;67.15;98114.54;234380;211;147643;-58
2023/12/12 23:03:15;;;;;;;28.40;17.60;;;;;;;5.81;67.19;98111.02;233966;208;138683;-58
2023/12/12 23:08:18;;;;;;;;;;;;;;;5.73;67.31;98101.98;234518;212;138101;-58
2023/12/12 23:13:21;;;;;;;24.80;16.90;;;;;;;5.62;67.46;98098.55;234681;212;148784;-57
2023/12/12 23:18:25;;;;;;;24.20;16.70;;;;;;;5.54;67.76;98090.59;234471;214;138664;-57
2023/12/12 23:23:28;;;;;;;28.50;17.70;;;;;;;5.47;67.78;98073.02;234130;212;137213;-56
2023/12/12 23:28:31;;;;;;;26.50;17.30;;;;;;;5.39;67.94;98069.05;234451;213;147818;-57
2023/12/12 23:33:37;;;;;;;30.10;18.60;;;;;;;5.31;68.15;98065.30;234429;212;139017;-58
2023/12/12 23:38:41;;;;;;;29.30;18.30;;;;;;;5.25;68.14;98064.10;234353;212;137998;-57
2023/12/12 23:43:44;;;;;;;28.50;17.40;;;;;;;5.13;68.70;98066.64;234506;213;147646;-58